sensor_id;sensor_type;location;lat;lon;timestamp;pressure;altitude;pressure_sealevel;temperature;humidity
39897;BME280;25567;48.276;14.242;2023-02-13T00:01:04;100511.91;;;-0.45;100.00
39897;BME280;25567;48.276;14.242;2023-02-13T00:03:33;100511.91;;;-0.45;100.00
39897;BME280;25567;48.276;14.242;2023-02-13T00:06:01;100495.75;;;-0.50;100.00
39897;BME280;25567;48.276;14.242;2023-02-13T00:08:29;100508.38;;;-0.57;100.00
39897;BME280;25567;48.276;14.242;2023-02-13T00:10:57;100507.31;;;-0.54;100.00
39897;BME280;25567;48.276;14.242;2023-02-13T00:13:27;100505.88;;;-0.71;100.00
39897;BME280;25567;48.276;14.242;2023-02-13T00:15:56;100497.84;;;-0.68;100.00
39897;BME280;25567;48.276;14.242;2023-02-13T00:18:24;100510.06;;;-0.69;100.00
39897;BME280;25567;48.276;14.242;2023-02-13T00:20:57;100498.06;;;-0.71;100.00
39897;BME280;25567;48.276;14.242;2023-02-13T00:23:26;100491.06;;;-0.71;100.00
39897;BME280;25567;48.276;14.242;2023-02-13T00:25:53;100500.56;;;-0.70;100.00
39897;BME280;25567;48.276;14.242;2023-02-13T00:28:21;100498.16;;;-0.73;100.00
39897;BME280;25567;48.276;14.242;2023-02-13T00:30:51;100494.31;;;-0.80;100.00
39897;BME280;25567;48.276;14.242;2023-02-13T00:33:19;100489.31;;;-0.83;100.00
39897;BME280;25567;48.276;14.242;2023-02-13T00:35:46;100491.69;;;-0.80;100.00
39897;BME280;25567;48.276;14.242;2023-02-13T00:38:14;100499.63;;;-0.81;100.00
39897;BME280;25567;48.276;14.242;2023-02-13T00:40:43;100504.41;;;-0.88;100.00
39897;BME280;25567;48.276;14.242;2023-02-13T00:43:12;100497.66;;;-0.78;100.00
39897;BME280;25567;48.276;14.242;2023-02-13T00:45:41;100504.44;;;-0.75;100.00
39897;BME280;25567;48.276;14.242;2023-02-13T00:48:10;100502.97;;;-0.79;100.00
39897;BME280;25567;48.276;14.242;2023-02-13T00:50:38;100503.59;;;-0.89;100.00
39897;BME280;25567;48.276;14.242;2023-02-13T00:53:06;100501.91;;;-0.90;100.00
39897;BME280;25567;48.276;14.242;2023-02-13T00:55:34;100505.16;;;-0.86;100.00
39897;BME280;25567;48.276;14.242;2023-02-13T00:58:02;100506.09;;;-0.87;100.00
39897;BME280;25567;48.276;14.242;2023-02-13T01:00:30;100516.69;;;-0.90;100.00
39897;BME280;25567;48.276;14.242;2023-02-13T01:02:59;100512.03;;;-0.85;100.00
39897;BME280;25567;48.276;14.242;2023-02-13T01:05:27;100501.81;;;-0.88;100.00
39897;BME280;25567;48.276;14.242;2023-02-13T01:07:55;100510.25;;;-0.97;100.00
39897;BME280;25567;48.276;14.242;2023-02-13T01:10:23;100510.03;;;-0.94;100.00
39897;BME280;25567;48.276;14.242;2023-02-13T01:12:52;100512.09;;;-0.99;100.00
39897;BME280;25567;48.276;14.242;2023-02-13T01:15:21;100498.03;;;-0.97;100.00
39897;BME280;25567;48.276;14.242;2023-02-13T01:17:52;100496.94;;;-0.93;100.00
39897;BME280;25567;48.276;14.242;2023-02-13T01:20:20;100496.72;;;-0.90;100.00
39897;BME280;25567;48.276;14.242;2023-02-13T01:22:49;100490.66;;;-0.90;100.00
39897;BME280;25567;48.276;14.242;2023-02-13T01:25:18;100496.94;;;-0.93;100.00
39897;BME280;25567;48.276;14.242;2023-02-13T01:27:46;100495.25;;;-0.94;100.00
39897;BME280;25567;48.276;14.242;2023-02-13T01:30:15;100499.53;;;-0.93;100.00
39897;BME280;25567;48.276;14.242;2023-02-13T01:32:46;100496.28;;;-0.96;100.00
39897;BME280;25567;48.276;14.242;2023-02-13T01:35:15;100495.25;;;-0.94;100.00
39897;BME280;25567;48.276;14.242;2023-02-13T01:37:43;100499.00;;;-0.98;100.00
39897;BME280;25567;48.276;14.242;2023-02-13T01:40:14;100491.72;;;-0.93;100.00
39897;BME280;25567;48.276;14.242;2023-02-13T01:42:45;100499.44;;;-0.91;100.00
39897;BME280;25567;48.276;14.242;2023-02-13T01:45:25;100497.84;;;-0.94;100.00
39897;BME280;25567;48.276;14.242;2023-02-13T01:47:57;100500.03;;;-0.88;100.00
39897;BME280;25567;48.276;14.242;2023-02-13T01:50:38;100497.53;;;-0.89;100.00
39897;BME280;25567;48.276;14.242;2023-02-13T01:53:11;100496.72;;;-0.90;100.00
39897;BME280;25567;48.276;14.242;2023-02-13T01:55:46;100500.25;;;-0.91;100.00
39897;BME280;25567;48.276;14.242;2023-02-13T01:58:18;100497.13;;;-0.96;100.00
39897;BME280;25567;48.276;14.242;2023-02-13T02:00:48;100493.19;;;-0.89;100.00
39897;BME280;25567;48.276;14.242;2023-02-13T02:05:49;100499.44;;;-0.91;100.00
39897;BME280;25567;48.276;14.242;2023-02-13T02:08:19;100495.56;;;-0.86;100.00
39897;BME280;25567;48.276;14.242;2023-02-13T02:10:48;100488.69;;;-0.87;100.00
39897;BME280;25567;48.276;14.242;2023-02-13T02:13:18;100495.44;;;-0.84;100.00
39897;BME280;25567;48.276;14.242;2023-02-13T02:15:48;100499.44;;;-0.91;100.00
39897;BME280;25567;48.276;14.242;2023-02-13T02:18:21;100499.84;;;-0.97;100.00
39897;BME280;25567;48.276;14.242;2023-02-13T02:26:48;100492.53;;;-0.92;100.00
39897;BME280;25567;48.276;14.242;2023-02-13T02:29:51;100492.44;;;-0.91;100.00
39897;BME280;25567;48.276;14.242;2023-02-13T02:32:42;100493.78;;;-0.85;100.00
39897;BME280;25567;48.276;14.242;2023-02-13T02:35:32;100489.31;;;-0.83;100.00
39897;BME280;25567;48.276;14.242;2023-02-13T02:40:51;100500.78;;;-0.86;100.00
39897;BME280;25567;48.276;14.242;2023-02-13T02:43:32;100488.69;;;-0.87;100.00
39897;BME280;25567;48.276;14.242;2023-02-13T02:46:23;100491.50;;;-0.90;100.00
39897;BME280;25567;48.276;14.242;2023-02-13T02:49:06;100485.34;;;-0.89;100.00
39897;BME280;25567;48.276;14.242;2023-02-13T02:52:00;100483.16;;;-0.82;100.00
39897;BME280;25567;48.276;14.242;2023-02-13T02:54:41;100485.03;;;-0.84;100.00
39897;BME280;25567;48.276;14.242;2023-02-13T02:57:29;100487.22;;;-0.78;100.00
39897;BME280;25567;48.276;14.242;2023-02-13T03:00:21;100482.72;;;-0.76;100.00
39897;BME280;25567;48.276;14.242;2023-02-13T03:03:17;100486.19;;;-0.88;100.00
39897;BME280;25567;48.276;14.242;2023-02-13T03:06:08;100497.13;;;-0.83;100.00
39897;BME280;25567;48.276;14.242;2023-02-13T03:08:43;100489.94;;;-0.79;100.00
39897;BME280;25567;48.276;14.242;2023-02-13T03:11:28;100485.78;;;-0.82;100.00
39897;BME280;25567;48.276;14.242;2023-02-13T03:14:17;100489.09;;;-0.80;100.00
39897;BME280;25567;48.276;14.242;2023-02-13T03:16:48;100491.19;;;-0.72;100.00
39897;BME280;25567;48.276;14.242;2023-02-13T03:19:56;100491.69;;;-0.80;100.00
39897;BME280;25567;48.276;14.242;2023-02-13T03:22:54;100489.72;;;-0.76;100.00
39897;BME280;25567;48.276;14.242;2023-02-13T03:31:33;100489.38;;;-0.72;100.00
39897;BME280;25567;48.276;14.242;2023-02-13T03:34:09;100480.03;;;-0.74;100.00
39897;BME280;25567;48.276;14.242;2023-02-13T03:36:44;100477.22;;;-0.71;100.00
39897;BME280;25567;48.276;14.242;2023-02-13T03:39:55;100479.72;;;-0.70;100.00
39897;BME280;25567;48.276;14.242;2023-02-13T03:42:37;100480.63;;;-0.71;100.00
39897;BME280;25567;48.276;14.242;2023-02-13T03:45:17;100488.56;;;-0.72;100.00
39897;BME280;25567;48.276;14.242;2023-02-13T03:48:05;100485.66;;;-0.68;100.00
39897;BME280;25567;48.276;14.242;2023-02-13T03:50:56;100482.19;;;-0.68;100.00
39897;BME280;25567;48.276;14.242;2023-02-13T03:53:27;100480.44;;;-0.68;100.00
39897;BME280;25567;48.276;14.242;2023-02-13T03:55:58;100478.56;;;-0.65;100.00
39897;BME280;25567;48.276;14.242;2023-02-13T03:58:47;100477.50;;;-0.63;100.00
39897;BME280;25567;48.276;14.242;2023-02-13T04:01:33;100471.25;;;-0.60;100.00
39897;BME280;25567;48.276;14.242;2023-02-13T04:04:18;100482.84;;;-0.64;100.00
39897;BME280;25567;48.276;14.242;2023-02-13T04:06:54;100486.06;;;-0.61;100.00
39897;BME280;25567;48.276;14.242;2023-02-13T04:09:26;100489.84;;;-0.65;100.00
39897;BME280;25567;48.276;14.242;2023-02-13T04:14:38;100489.59;;;-0.62;100.00
39897;BME280;25567;48.276;14.242;2023-02-13T04:17:11;100487.72;;;-0.60;100.00
39897;BME280;25567;48.276;14.242;2023-02-13T04:19:43;100484.16;;;-0.59;100.00
39897;BME280;25567;48.276;14.242;2023-02-13T04:22:15;100484.91;;;-0.57;100.00
39897;BME280;25567;48.276;14.242;2023-02-13T04:24:44;100482.91;;;-0.53;100.00
39897;BME280;25567;48.276;14.242;2023-02-13T04:27:15;100474.47;;;-0.57;100.00
39897;BME280;25567;48.276;14.242;2023-02-13T04:29:45;100473.75;;;-0.59;100.00
39897;BME280;25567;48.276;14.242;2023-02-13T04:32:13;100472.47;;;-0.53;100.00
39897;BME280;25567;48.276;14.242;2023-02-13T04:34:42;100465.78;;;-0.44;100.00
39897;BME280;25567;48.276;14.242;2023-02-13T04:37:12;100471.13;;;-0.46;100.00
39897;BME280;25567;48.276;14.242;2023-02-13T04:39:40;100464.53;;;-0.39;100.00
39897;BME280;25567;48.276;14.242;2023-02-13T04:42:08;100467.06;;;-0.37;100.00
39897;BME280;25567;48.276;14.242;2023-02-13T04:44:36;100469.53;;;-0.36;100.00
39897;BME280;25567;48.276;14.242;2023-02-13T04:47:04;100471.19;;;-0.35;100.00
39897;BME280;25567;48.276;14.242;2023-02-13T04:49:32;100467.06;;;-0.37;100.00
39897;BME280;25567;48.276;14.242;2023-02-13T04:52:00;100471.63;;;-0.41;100.00
39897;BME280;25567;48.276;14.242;2023-02-13T04:54:29;100456.31;;;-0.45;100.00
39897;BME280;25567;48.276;14.242;2023-02-13T04:56:58;100468.19;;;-0.41;100.00
39897;BME280;25567;48.276;14.242;2023-02-13T04:59:27;100467.97;;;-0.38;100.00
39897;BME280;25567;48.276;14.242;2023-02-13T05:01:55;100468.09;;;-0.40;100.00
39897;BME280;25567;48.276;14.242;2023-02-13T05:04:26;100467.47;;;-0.43;100.00
39897;BME280;25567;48.276;14.242;2023-02-13T05:06:57;100468.63;;;-0.47;100.00
39897;BME280;25567;48.276;14.242;2023-02-13T05:09:24;100472.78;;;-0.45;100.00
39897;BME280;25567;48.276;14.242;2023-02-13T05:11:53;100469.34;;;-0.45;100.00
39897;BME280;25567;48.276;14.242;2023-02-13T05:14:21;100471.34;;;-0.49;100.00
39897;BME280;25567;48.276;14.242;2023-02-13T05:16:49;100460.81;;;-0.47;100.00
39897;BME280;25567;48.276;14.242;2023-02-13T05:19:20;100462.47;;;-0.46;100.00
39897;BME280;25567;48.276;14.242;2023-02-13T05:21:48;100461.00;;;-0.51;100.00
39897;BME280;25567;48.276;14.242;2023-02-13T05:24:32;100462.47;;;-0.46;100.00
39897;BME280;25567;48.276;14.242;2023-02-13T05:27:00;100463.94;;;-0.42;100.00
39897;BME280;25567;48.276;14.242;2023-02-13T05:29:29;100472.47;;;-0.40;100.00
39897;BME280;25567;48.276;14.242;2023-02-13T05:31:58;100470.25;;;-0.34;100.00
39897;BME280;25567;48.276;14.242;2023-02-13T05:34:27;100473.72;;;-0.33;100.00
39897;BME280;25567;48.276;14.242;2023-02-13T05:36:55;100477.13;;;-0.32;100.00
39897;BME280;25567;48.276;14.242;2023-02-13T05:39:23;100474.75;;;-0.36;100.00
39897;BME280;25567;48.276;14.242;2023-02-13T05:41:54;100473.59;;;-0.31;100.00
39897;BME280;25567;48.276;14.242;2023-02-13T05:44:23;100478.06;;;-0.34;100.00
39897;BME280;25567;48.276;14.242;2023-02-13T05:46:52;100473.47;;;-0.30;100.00
39897;BME280;25567;48.276;14.242;2023-02-13T05:49:20;100479.53;;;-0.29;100.00
39897;BME280;25567;48.276;14.242;2023-02-13T05:51:50;100483.09;;;-0.30;100.00
39897;BME280;25567;48.276;14.242;2023-02-13T05:54:19;100477.88;;;-0.30;100.00
39897;BME280;25567;48.276;14.242;2023-02-13T05:56:46;100471.81;;;-0.31;100.00
39897;BME280;25567;48.276;14.242;2023-02-13T05:59:16;100476.09;;;-0.30;100.00
39897;BME280;25567;48.276;14.242;2023-02-13T06:01:44;100475.66;;;-0.24;100.00
39897;BME280;25567;48.276;14.242;2023-02-13T06:04:13;100484.19;;;-0.22;100.00
39897;BME280;25567;48.276;14.242;2023-02-13T06:06:43;100480.78;;;-0.22;100.00
39897;BME280;25567;48.276;14.242;2023-02-13T06:09:11;100483.25;;;-0.21;100.00
39897;BME280;25567;48.276;14.242;2023-02-13T06:11:39;100482.63;;;-0.24;100.00
39897;BME280;25567;48.276;14.242;2023-02-13T06:14:10;100482.03;;;-0.28;100.00
39897;BME280;25567;48.276;14.242;2023-02-13T06:16:40;100489.44;;;-0.35;100.00
39897;BME280;25567;48.276;14.242;2023-02-13T06:19:08;100493.31;;;-0.27;100.00
39897;BME280;25567;48.276;14.242;2023-02-13T06:21:36;100493.19;;;-0.26;100.00
39897;BME280;25567;48.276;14.242;2023-02-13T06:24:07;100481.31;;;-0.30;100.00
39897;BME280;25567;48.276;14.242;2023-02-13T06:26:38;100483.81;;;-0.28;100.00
39897;BME280;25567;48.276;14.242;2023-02-13T06:29:06;100491.75;;;-0.30;100.00
39897;BME280;25567;48.276;14.242;2023-02-13T06:31:37;100484.66;;;-0.28;100.00
39897;BME280;25567;48.276;14.242;2023-02-13T06:34:06;100485.25;;;-0.24;100.00
39897;BME280;25567;48.276;14.242;2023-02-13T06:36:35;100492.13;;;-0.23;100.00
39897;BME280;25567;48.276;14.242;2023-02-13T06:39:05;100491.31;;;-0.24;100.00
39897;BME280;25567;48.276;14.242;2023-02-13T06:41:32;100500.91;;;-0.24;100.00
39897;BME280;25567;48.276;14.242;2023-02-13T06:44:01;100499.03;;;-0.22;100.00
39897;BME280;25567;48.276;14.242;2023-02-13T06:46:28;100504.34;;;-0.24;100.00
39897;BME280;25567;48.276;14.242;2023-02-13T06:48:57;100508.84;;;-0.26;100.00
39897;BME280;25567;48.276;14.242;2023-02-13T06:51:24;100509.56;;;-0.24;100.00
39897;BME280;25567;48.276;14.242;2023-02-13T06:53:54;100512.63;;;-0.06;100.00
39897;BME280;25567;48.276;14.242;2023-02-13T06:56:22;100510.94;;;0.06;100.00
39897;BME280;25567;48.276;14.242;2023-02-13T06:58:52;100515.34;;;-0.07;100.00
39897;BME280;25567;48.276;14.242;2023-02-13T07:01:20;100519.22;;;0.00;100.00
39897;BME280;25567;48.276;14.242;2023-02-13T07:03:49;100516.69;;;-0.02;100.00
39897;BME280;25567;48.276;14.242;2023-02-13T07:06:19;100521.63;;;-0.10;100.00
39897;BME280;25567;48.276;14.242;2023-02-13T07:08:48;100519.13;;;-0.11;100.00
39897;BME280;25567;48.276;14.242;2023-02-13T07:11:23;100522.47;;;-0.09;100.00
39897;BME280;25567;48.276;14.242;2023-02-13T07:13:51;100526.41;;;-0.04;100.00
39897;BME280;25567;48.276;14.242;2023-02-13T07:16:18;100527.06;;;-0.13;100.00
39897;BME280;25567;48.276;14.242;2023-02-13T07:18:48;100530.19;;;-0.08;100.00
39897;BME280;25567;48.276;14.242;2023-02-13T07:21:16;100528.00;;;-0.14;100.00
39897;BME280;25567;48.276;14.242;2023-02-13T07:23:46;100530.63;;;-0.14;100.00
39897;BME280;25567;48.276;14.242;2023-02-13T07:26:15;100530.69;;;-0.03;100.00
39897;BME280;25567;48.276;14.242;2023-02-13T07:28:45;100530.78;;;-0.04;100.00
39897;BME280;25567;48.276;14.242;2023-02-13T07:31:14;100532.81;;;-0.08;100.00
39897;BME280;25567;48.276;14.242;2023-02-13T07:33:47;100534.66;;;-0.10;100.00
39897;BME280;25567;48.276;14.242;2023-02-13T07:36:16;100527.50;;;-0.32;100.00
39897;BME280;25567;48.276;14.242;2023-02-13T07:38:45;100537.94;;;-0.32;100.00
39897;BME280;25567;48.276;14.242;2023-02-13T07:41:15;100535.13;;;-0.29;100.00
39897;BME280;25567;48.276;14.242;2023-02-13T07:43:44;100532.31;;;-0.26;100.00
39897;BME280;25567;48.276;14.242;2023-02-13T07:46:14;100537.97;;;-0.45;100.00
39897;BME280;25567;48.276;14.242;2023-02-13T07:48:44;100537.75;;;-0.42;100.00
39897;BME280;25567;48.276;14.242;2023-02-13T07:51:13;100542.97;;;-0.42;100.00
39897;BME280;25567;48.276;14.242;2023-02-13T07:53:44;100538.56;;;-0.41;100.00
39897;BME280;25567;48.276;14.242;2023-02-13T07:56:12;100540.59;;;-0.45;100.00
39897;BME280;25567;48.276;14.242;2023-02-13T07:58:43;100542.75;;;-0.39;100.00
39897;BME280;25567;48.276;14.242;2023-02-13T08:01:13;100537.75;;;-0.42;100.00
39897;BME280;25567;48.276;14.242;2023-02-13T08:03:47;100539.09;;;-0.36;100.00
39897;BME280;25567;48.276;14.242;2023-02-13T08:06:19;100532.00;;;-0.21;100.00
39897;BME280;25567;48.276;14.242;2023-02-13T08:08:50;100543.91;;;-0.30;100.00
39897;BME280;25567;48.276;14.242;2023-02-13T08:11:40;100535.53;;;-0.22;100.00
39897;BME280;25567;48.276;14.242;2023-02-13T08:14:25;100544.19;;;-0.35;100.00
39897;BME280;25567;48.276;14.242;2023-02-13T08:16:55;100551.94;;;-0.33;100.00
39897;BME280;25567;48.276;14.242;2023-02-13T08:19:24;100545.97;;;-0.22;100.00
39897;BME280;25567;48.276;14.242;2023-02-13T08:21:53;100549.13;;;-0.30;100.00
39897;BME280;25567;48.276;14.242;2023-02-13T08:24:23;100543.88;;;-0.17;100.00
39897;BME280;25567;48.276;14.242;2023-02-13T08:26:52;100549.22;;;-0.19;100.00
39897;BME280;25567;48.276;14.242;2023-02-13T08:29:20;100546.69;;;-0.20;100.00
39897;BME280;25567;48.276;14.242;2023-02-13T08:31:50;100547.31;;;-0.29;100.00
39897;BME280;25567;48.276;14.242;2023-02-13T08:34:19;100548.06;;;-0.14;100.00
39897;BME280;25567;48.276;14.242;2023-02-13T08:36:48;100547.72;;;-0.23;100.00
39897;BME280;25567;48.276;14.242;2023-02-13T08:39:18;100548.88;;;-0.14;100.00
39897;BME280;25567;48.276;14.242;2023-02-13T08:41:46;100544.81;;;-0.18;100.00
39897;BME280;25567;48.276;14.242;2023-02-13T08:44:14;100545.84;;;-0.08;100.00
39897;BME280;25567;48.276;14.242;2023-02-13T08:46:43;100551.78;;;-0.06;100.00
39897;BME280;25567;48.276;14.242;2023-02-13T08:49:12;100550.94;;;-0.06;100.00
39897;BME280;25567;48.276;14.242;2023-02-13T08:51:41;100550.94;;;-0.06;100.00
39897;BME280;25567;48.276;14.242;2023-02-13T08:54:09;100553.56;;;-0.06;100.00
39897;BME280;25567;48.276;14.242;2023-02-13T08:56:37;100552.94;;;-0.10;100.00
39897;BME280;25567;48.276;14.242;2023-02-13T08:59:06;100548.06;;;-0.14;100.00
39897;BME280;25567;48.276;14.242;2023-02-13T09:01:34;100560.88;;;-0.11;100.00
39897;BME280;25567;48.276;14.242;2023-02-13T09:04:03;100559.00;;;-0.09;100.00
39897;BME280;25567;48.276;14.242;2023-02-13T09:06:31;100553.78;;;-0.09;100.00
39897;BME280;25567;48.276;14.242;2023-02-13T09:08:59;100562.53;;;-0.10;100.00
39897;BME280;25567;48.276;14.242;2023-02-13T09:11:28;100563.56;;;0.00;100.00
39897;BME280;25567;48.276;14.242;2023-02-13T09:13:57;100562.59;;;0.01;100.00
39897;BME280;25567;48.276;14.242;2023-02-13T09:16:25;100563.13;;;0.06;100.00
39897;BME280;25567;48.276;14.242;2023-02-13T09:18:53;100569.19;;;0.07;100.00
39897;BME280;25567;48.276;14.242;2023-02-13T09:21:22;100566.06;;;0.02;100.00
39897;BME280;25567;48.276;14.242;2023-02-13T09:23:53;100579.13;;;0.02;100.00
39897;BME280;25567;48.276;14.242;2023-02-13T09:26:25;100570.84;;;0.08;100.00
39897;BME280;25567;48.276;14.242;2023-02-13T09:28:56;100568.44;;;0.05;100.00
39897;BME280;25567;48.276;14.242;2023-02-13T09:31:26;100568.72;;;0.13;100.00
39897;BME280;25567;48.276;14.242;2023-02-13T09:33:56;100571.06;;;0.05;100.00
39897;BME280;25567;48.276;14.242;2023-02-13T09:36:27;100571.16;;;0.16;100.00
39897;BME280;25567;48.276;14.242;2023-02-13T09:38:56;100564.31;;;0.26;100.00
39897;BME280;25567;48.276;14.242;2023-02-13T09:41:31;100567.66;;;0.28;100.00
39897;BME280;25567;48.276;14.242;2023-02-13T09:47:27;100562.94;;;0.33;100.00
39897;BME280;25567;48.276;14.242;2023-02-13T09:49:59;100565.53;;;0.33;100.00
39897;BME280;25567;48.276;14.242;2023-02-13T09:52:32;100565.00;;;0.41;100.00
39897;BME280;25567;48.276;14.242;2023-02-13T09:55:17;100573.88;;;0.39;100.00
39897;BME280;25567;48.276;14.242;2023-02-13T10:00:47;100563.16;;;0.55;100.00
39897;BME280;25567;48.276;14.242;2023-02-13T10:03:36;100575.84;;;0.48;100.00
39897;BME280;25567;48.276;14.242;2023-02-13T10:09:00;100580.16;;;0.60;100.00
39897;BME280;25567;48.276;14.242;2023-02-13T10:14:30;100583.78;;;0.71;100.00
39897;BME280;25567;48.276;14.242;2023-02-13T10:17:16;100584.97;;;0.78;100.00
39897;BME280;25567;48.276;14.242;2023-02-13T10:19:54;100582.84;;;0.83;100.00
39897;BME280;25567;48.276;14.242;2023-02-13T10:22:30;100581.56;;;0.89;100.00
39897;BME280;25567;48.276;14.242;2023-02-13T10:27:34;100580.38;;;0.93;100.00
39897;BME280;25567;48.276;14.242;2023-02-13T10:33:03;100570.63;;;0.83;100.00
39897;BME280;25567;48.276;14.242;2023-02-13T10:38:44;100569.53;;;1.10;100.00
39897;BME280;25567;48.276;14.242;2023-02-13T10:41:23;100568.81;;;1.08;100.00
39897;BME280;25567;48.276;14.242;2023-02-13T10:50:05;100562.63;;;1.09;100.00
39897;BME280;25567;48.276;14.242;2023-02-13T11:00:57;100560.25;;;1.17;100.00
39897;BME280;25567;48.276;14.242;2023-02-13T11:03:29;100558.63;;;1.39;100.00
39897;BME280;25567;48.276;14.242;2023-02-13T11:05:58;100558.25;;;1.32;100.00
39897;BME280;25567;48.276;14.242;2023-02-13T11:08:33;100553.28;;;1.29;100.00
39897;BME280;25567;48.276;14.242;2023-02-13T11:11:02;100549.34;;;1.35;100.00
39897;BME280;25567;48.276;14.242;2023-02-13T11:13:30;100543.06;;;1.38;100.00
39897;BME280;25567;48.276;14.242;2023-02-13T11:16:02;100544.75;;;1.50;100.00
39897;BME280;25567;48.276;14.242;2023-02-13T11:18:36;100532.84;;;1.46;100.00
39897;BME280;25567;48.276;14.242;2023-02-13T11:21:07;100536.06;;;1.49;100.00
39897;BME280;25567;48.276;14.242;2023-02-13T11:23:41;100534.50;;;1.47;100.00
39897;BME280;25567;48.276;14.242;2023-02-13T11:28:49;100531.69;;;1.50;100.00
39897;BME280;25567;48.276;14.242;2023-02-13T11:31:27;100529.03;;;1.61;100.00
39897;BME280;25567;48.276;14.242;2023-02-13T11:33:58;100532.72;;;1.59;100.00
39897;BME280;25567;48.276;14.242;2023-02-13T11:36:31;100530.47;;;1.65;100.00
39897;BME280;25567;48.276;14.242;2023-02-13T11:39:06;100537.25;;;1.68;100.00
39897;BME280;25567;48.276;14.242;2023-02-13T11:41:46;100528.34;;;1.82;100.00
39897;BME280;25567;48.276;14.242;2023-02-13T11:44:24;100534.84;;;1.76;100.00
39897;BME280;25567;48.276;14.242;2023-02-13T11:46:55;100526.78;;;1.79;100.00
39897;BME280;25567;48.276;14.242;2023-02-13T11:49:27;100537.38;;;1.78;100.00
39897;BME280;25567;48.276;14.242;2023-02-13T11:52:00;100538.31;;;1.77;100.00
39897;BME280;25567;48.276;14.242;2023-02-13T11:54:41;100541.16;;;1.85;100.00
39897;BME280;25567;48.276;14.242;2023-02-13T11:57:19;100538.53;;;1.85;100.00
39897;BME280;25567;48.276;14.242;2023-02-13T11:59:51;100539.97;;;1.89;100.00
39897;BME280;25567;48.276;14.242;2023-02-13T12:02:23;100541.63;;;1.90;100.00
39897;BME280;25567;48.276;14.242;2023-02-13T12:05:13;100534.47;;;1.92;100.00
39897;BME280;25567;48.276;14.242;2023-02-13T12:07:43;100536.28;;;1.92;100.00
39897;BME280;25567;48.276;14.242;2023-02-13T12:10:17;100531.63;;;1.95;100.00
39897;BME280;25567;48.276;14.242;2023-02-13T12:12:58;100530.78;;;1.95;100.00
39897;BME280;25567;48.276;14.242;2023-02-13T12:15:34;100531.25;;;2.00;100.00
39897;BME280;25567;48.276;14.242;2023-02-13T12:18:10;100528.78;;;1.98;100.00
39897;BME280;25567;48.276;14.242;2023-02-13T12:20:58;100528.28;;;2.05;100.00
39897;BME280;25567;48.276;14.242;2023-02-13T12:27:04;100518.03;;;2.13;100.00
39897;BME280;25567;48.276;14.242;2023-02-13T12:35:35;100516.34;;;2.23;100.00
39897;BME280;25567;48.276;14.242;2023-02-13T12:40:57;100505.03;;;2.55;100.00
39897;BME280;25567;48.276;14.242;2023-02-13T12:49:00;100497.88;;;2.57;100.00
39897;BME280;25567;48.276;14.242;2023-02-13T12:51:49;100487.16;;;2.60;100.00
39897;BME280;25567;48.276;14.242;2023-02-13T12:54:41;100492.19;;;2.73;100.00
39897;BME280;25567;48.276;14.242;2023-02-13T13:03:10;100500.47;;;2.57;100.00
39897;BME280;25567;48.276;14.242;2023-02-13T13:12:04;100496.09;;;2.79;100.00
39897;BME280;25567;48.276;14.242;2023-02-13T13:23:04;100501.66;;;2.64;100.00
39897;BME280;25567;48.276;14.242;2023-02-13T13:25:52;100497.25;;;2.65;100.00
39897;BME280;25567;48.276;14.242;2023-02-13T13:28:31;100493.66;;;2.66;100.00
39897;BME280;25567;48.276;14.242;2023-02-13T13:31:02;100496.66;;;2.82;100.00
39897;BME280;25567;48.276;14.242;2023-02-13T13:33:33;100503.69;;;2.82;100.00
39897;BME280;25567;48.276;14.242;2023-02-13T13:36:19;100493.53;;;2.89;100.00
39897;BME280;25567;48.276;14.242;2023-02-13T13:44:37;100499.94;;;2.96;100.00
39897;BME280;25567;48.276;14.242;2023-02-13T13:49:53;100498.50;;;2.92;100.00
39897;BME280;25567;48.276;14.242;2023-02-13T13:52:27;100483.44;;;3.05;100.00
39897;BME280;25567;48.276;14.242;2023-02-13T13:54:59;100486.31;;;3.02;100.00
39897;BME280;25567;48.276;14.242;2023-02-13T14:00:22;100490.09;;;2.88;100.00
39897;BME280;25567;48.276;14.242;2023-02-13T14:03:11;100492.59;;;2.90;100.00
39897;BME280;25567;48.276;14.242;2023-02-13T14:05:59;100484.84;;;2.88;100.00
39897;BME280;25567;48.276;14.242;2023-02-13T14:11:30;100466.38;;;2.90;100.00
39897;BME280;25567;48.276;14.242;2023-02-13T14:14:00;100465.13;;;3.15;100.00
39897;BME280;25567;48.276;14.242;2023-02-13T14:16:48;100456.03;;;3.19;100.00
39897;BME280;25567;48.276;14.242;2023-02-13T14:19:33;100457.97;;;3.17;100.00
39897;BME280;25567;48.276;14.242;2023-02-13T14:22:25;100464.03;;;3.17;100.00
39897;BME280;25567;48.276;14.242;2023-02-13T14:24:59;100465.22;;;3.34;100.00
39897;BME280;25567;48.276;14.242;2023-02-13T14:27:34;100462.44;;;3.26;100.00
39897;BME280;25567;48.276;14.242;2023-02-13T14:32:51;100464.19;;;3.26;100.00
39897;BME280;25567;48.276;14.242;2023-02-13T14:35:27;100462.84;;;3.31;100.00
39897;BME280;25567;48.276;14.242;2023-02-13T14:37:58;100450.72;;;3.40;100.00
39897;BME280;25567;48.276;14.242;2023-02-13T14:43:30;100446.59;;;3.47;100.00
39897;BME280;25567;48.276;14.242;2023-02-13T14:46:08;100448.13;;;3.50;100.00
39897;BME280;25567;48.276;14.242;2023-02-13T14:51:35;100445.63;;;3.48;100.00
39897;BME280;25567;48.276;14.242;2023-02-13T14:56:47;100433.66;;;3.56;100.00
39897;BME280;25567;48.276;14.242;2023-02-13T14:59:29;100423.72;;;3.59;100.00
39897;BME280;25567;48.276;14.242;2023-02-13T15:02:17;100431.34;;;3.62;100.00
39897;BME280;25567;48.276;14.242;2023-02-13T15:04:56;100425.81;;;3.65;100.00